Terminal Aerodrome Forecast
Issued by NWS Tuscon, AZ

Home | Current Version | Previous Version | Text Only | Print | Product List | Glossary On
Versions: 1 2 3 4 5 6 7 8 9 10 11 12 13 14 15 16 17 18 19 20 21 22
000
FTUS45 KTWC 021737
TAFTUS
TAF
KTUS 021737Z 0218/0318 17007KT P6SM SCT080 BKN120
     FM022000 22010KT P6SM VCTS SCT070CB BKN110
      TEMPO 0222/0224 VRB15G30KT 4SM TSRA BKN060CB OVC100
     FM030200 19009KT P6SM VCSH SCT070 BKN120 OVC200
     FM030800 14007KT P6SM SCT120 BKN200=

USA.gov is the U.S. government's official web portal to all federal, state and local government web resources and services.